Time;durP1;ratioP1;P1;durP2;ratioP2;P2;SDS_P1;SDS_P2;PMS_P1;PMS_P2;Temp;Humidity;BMP_temperature;BMP_pressure;BME280_temperature;BME280_humidity;BME280_pressure;Samples;Min_cycle;Max_cycle;Signal;HPM_P1;HPM_P2
2021/05/19 00:00:10;;;;;;;1.10;0.70;;;15.40;57.90;;;;;;6285879;28;20097;-83
2021/05/19 00:03:11;;;;;;;0.73;0.60;;;15.40;57.90;;;;;;6285406;28;20054;-85
2021/05/19 00:06:12;;;;;;;1.88;0.70;;;15.40;57.80;;;;;;6283064;28;20098;-84
2021/05/19 00:09:15;;;;;;;1.88;0.90;;;15.40;57.70;;;;;;6265324;28;20029;-83
2021/05/19 00:12:16;;;;;;;2.50;0.88;;;15.40;57.70;;;;;;6278188;28;20031;-84
2021/05/19 00:15:18;;;;;;;0.70;0.70;;;15.40;57.60;;;;;;6290611;28;20029;-83
2021/05/19 00:18:19;;;;;;;1.45;0.77;;;15.40;57.70;;;;;;6281114;28;20037;-84
2021/05/19 00:21:20;;;;;;;1.38;0.73;;;15.40;57.80;;;;;;6275049;28;20083;-84
2021/05/19 00:24:21;;;;;;;1.67;0.80;;;15.40;57.90;;;;;;6263491;28;20152;-84
2021/05/19 00:27:23;;;;;;;1.50;0.80;;;15.40;58.00;;;;;;6276114;28;20036;-85
2021/05/19 00:30:26;;;;;;;3.67;0.90;;;15.40;58.00;;;;;;6263192;28;20040;-84
2021/05/19 00:33:27;;;;;;;1.77;0.93;;;15.40;58.10;;;;;;6273402;28;20032;-84
2021/05/19 00:36:28;;;;;;;1.40;0.82;;;15.40;58.20;;;;;;6281770;28;20039;-84
2021/05/19 00:39:30;;;;;;;2.92;1.13;;;15.30;58.30;;;;;;6295910;28;20131;-84
2021/05/19 00:42:31;;;;;;;3.50;1.05;;;15.30;58.50;;;;;;6290330;28;20069;-85
2021/05/19 00:45:32;;;;;;;1.10;0.75;;;15.30;58.80;;;;;;6255457;28;20425;-84
2021/05/19 00:48:35;;;;;;;1.52;0.75;;;15.30;58.90;;;;;;6273046;28;20033;-84
2021/05/19 00:51:36;;;;;;;2.00;0.95;;;15.20;59.00;;;;;;6246078;28;20033;-84
2021/05/19 00:54:37;;;;;;;5.57;0.90;;;15.40;59.20;;;;;;6261954;28;20150;-85
2021/05/19 00:57:40;;;;;;;2.08;0.98;;;15.20;59.20;;;;;;6272924;28;20053;-84
2021/05/19 01:00:42;;;;;;;1.60;0.70;;;15.20;59.20;;;;;;6263520;28;20033;-83
2021/05/19 01:03:56;;;;;;;0.68;0.68;;;15.20;59.30;;;;;;6275572;28;20098;-84
2021/05/19 01:07:14;;;;;;;1.30;0.82;;;15.20;59.30;;;;;;6274812;28;20321;-84
2021/05/19 01:10:16;;;;;;;0.98;0.60;;;15.20;59.40;;;;;;6295363;28;20366;-85
2021/05/19 01:13:20;;;;;;;1.05;0.63;;;15.20;59.30;;;;;;6299647;28;20040;-85
2021/05/19 01:16:21;;;;;;;2.22;1.00;;;15.20;59.30;;;;;;6300263;28;20025;-84
2021/05/19 01:19:25;;;;;;;2.13;1.00;;;15.20;59.40;;;;;;6299697;28;20441;-84
2021/05/19 01:22:28;;;;;;;2.88;0.93;;;15.20;59.40;;;;;;6278836;28;20041;-85
2021/05/19 01:25:30;;;;;;;1.38;0.93;;;15.20;59.40;;;;;;6242871;28;20044;-84
2021/05/19 01:28:31;;;;;;;2.97;1.13;;;15.20;59.40;;;;;;6265073;28;20029;-83
2021/05/19 01:31:33;;;;;;;4.22;0.98;;;15.10;59.50;;;;;;6277648;28;20065;-84
2021/05/19 01:34:36;;;;;;;2.15;1.13;;;15.20;59.60;;;;;;6262452;28;20060;-83
2021/05/19 01:37:38;;;;;;;1.13;0.88;;;15.20;59.70;;;;;;6292671;28;20032;-84
2021/05/19 01:40:39;;;;;;;4.85;0.90;;;15.20;59.70;;;;;;6278842;28;20116;-83
2021/05/19 01:43:40;;;;;;;3.72;1.02;;;15.20;59.70;;;;;;6281324;28;20041;-85
2021/05/19 01:47:04;;;;;;;0.80;0.65;;;15.10;59.80;;;;;;6287524;28;20036;-84
2021/05/19 01:50:11;;;;;;;1.38;0.90;;;15.20;59.90;;;;;;6285506;28;20041;-84
2021/05/19 01:53:13;;;;;;;2.47;1.00;;;15.20;59.80;;;;;;6263178;28;20098;-83
2021/05/19 01:56:14;;;;;;;1.40;0.75;;;15.20;59.80;;;;;;6285471;28;20048;-82
2021/05/19 01:59:16;;;;;;;1.95;0.68;;;15.10;59.80;;;;;;6283705;28;20115;-84
2021/05/19 02:02:22;;;;;;;1.15;0.82;;;15.10;59.80;;;;;;6284688;28;20091;-84
2021/05/19 02:05:26;;;;;;;1.23;0.80;;;15.10;59.90;;;;;;6311505;28;20048;-84
2021/05/19 02:08:27;;;;;;;7.47;0.85;;;15.10;60.00;;;;;;6286896;28;20146;-84
2021/05/19 02:11:28;;;;;;;2.30;0.68;;;15.10;60.00;;;;;;6269740;28;20504;-84
2021/05/19 02:14:30;;;;;;;0.57;0.57;;;15.10;60.00;;;;;;6286947;28;20407;-84
2021/05/19 02:17:32;;;;;;;1.33;0.82;;;15.10;59.50;;;;;;6286563;28;20036;-84
2021/05/19 02:20:34;;;;;;;1.63;0.60;;;15.00;60.00;;;;;;6301845;28;20060;-84
2021/05/19 02:23:35;;;;;;;2.65;0.90;;;15.00;60.00;;;;;;6284001;28;20036;-84
2021/05/19 02:26:38;;;;;;;2.95;1.45;;;15.00;60.00;;;;;;6301429;28;20051;-85
2021/05/19 02:29:41;;;;;;;1.40;1.30;;;15.00;60.20;;;;;;6259280;28;20064;-83
2021/05/19 02:32:43;;;;;;;1.00;0.70;;;14.90;60.30;;;;;;6285996;28;20036;-83
2021/05/19 02:35:45;;;;;;;1.02;0.77;;;14.90;60.40;;;;;;6269419;28;20041;-84
2021/05/19 02:38:47;;;;;;;3.90;0.77;;;15.00;60.40;;;;;;6283242;28;20097;-83
2021/05/19 02:41:49;;;;;;;0.93;0.55;;;15.00;60.00;;;;;;6300905;28;20115;-84
2021/05/19 02:44:51;;;;;;;0.98;0.70;;;14.90;59.70;;;;;;6284094;28;20045;-85
2021/05/19 02:47:52;;;;;;;1.13;0.57;;;15.00;59.60;;;;;;6268167;28;20051;-84
2021/05/19 02:50:53;;;;;;;0.88;0.50;;;15.00;59.60;;;;;;6300664;28;20367;-84
2021/05/19 02:53:55;;;;;;;0.68;0.50;;;15.00;59.40;;;;;;6282572;28;20032;-84
2021/05/19 02:56:56;;;;;;;1.38;0.77;;;15.00;59.50;;;;;;6299711;28;20052;-84
2021/05/19 02:59:58;;;;;;;0.90;0.85;;;15.00;59.60;;;;;;6300823;28;20041;-84
2021/05/19 03:02:59;;;;;;;0.68;0.68;;;14.90;59.80;;;;;;6284080;28;20032;-83
2021/05/19 03:06:00;;;;;;;0.57;0.57;;;14.90;59.90;;;;;;6275994;28;20130;-85
2021/05/19 03:09:03;;;;;;;4.45;1.17;;;14.90;60.10;;;;;;6279511;28;20048;-85
2021/05/19 03:12:04;;;;;;;2.95;1.10;;;14.90;60.30;;;;;;6283670;28;20024;-85
2021/05/19 03:15:07;;;;;;;1.60;1.13;;;14.90;60.40;;;;;;6283063;28;20028;-84
2021/05/19 03:18:09;;;;;;;1.48;0.88;;;14.90;60.50;;;;;;6256397;28;20024;-84
2021/05/19 03:21:10;;;;;;;5.63;1.10;;;14.90;60.70;;;;;;6295880;28;20086;-84
2021/05/19 03:24:11;;;;;;;2.65;0.90;;;14.90;60.80;;;;;;6293844;28;20032;-83
2021/05/19 03:27:12;;;;;;;1.48;0.85;;;14.90;60.90;;;;;;6284630;28;20044;-84
2021/05/19 03:30:15;;;;;;;1.02;0.82;;;14.90;61.00;;;;;;6261072;28;20048;-85
2021/05/19 03:33:17;;;;;;;3.53;1.05;;;14.90;61.20;;;;;;6277682;28;20044;-84
2021/05/19 03:36:20;;;;;;;2.00;0.73;;;14.80;61.10;;;;;;6263772;28;20107;-85
2021/05/19 03:39:21;;;;;;;1.30;0.80;;;14.80;61.20;;;;;;6288944;28;20029;-85
2021/05/19 03:42:22;;;;;;;3.47;0.70;;;14.80;61.20;;;;;;6256605;28;20036;-84
2021/05/19 03:45:25;;;;;;;0.65;0.52;;;14.80;61.10;;;;;;6281984;28;20062;-85
2021/05/19 03:48:26;;;;;;;0.70;0.60;;;14.80;61.00;;;;;;6282217;28;20338;-84
2021/05/19 03:51:29;;;;;;;1.63;0.63;;;14.80;60.70;;;;;;6292692;28;20365;-84
2021/05/19 03:54:33;;;;;;;1.75;0.82;;;14.80;60.40;;;;;;6281995;28;20071;-83
2021/05/19 03:57:34;;;;;;;2.47;0.70;;;14.80;60.20;;;;;;6283698;28;20116;-84
2021/05/19 04:00:36;;;;;;;1.98;0.90;;;14.80;60.00;;;;;;6298935;28;20416;-83
2021/05/19 04:03:37;;;;;;;0.98;0.80;;;14.90;60.10;;;;;;6287421;28;20037;-83
2021/05/19 04:06:39;;;;;;;1.05;0.85;;;14.90;60.10;;;;;;6299080;28;20118;-84
2021/05/19 04:09:43;;;;;;;1.75;0.93;;;14.80;60.00;;;;;;6288993;28;20036;-82
2021/05/19 04:12:47;;;;;;;2.70;0.73;;;14.80;60.20;;;;;;6276189;28;20044;-83
2021/05/19 04:15:48;;;;;;;4.93;1.20;;;14.80;60.20;;;;;;6266584;28;20047;-85
2021/05/19 04:18:49;;;;;;;2.10;1.13;;;14.70;60.20;;;;;;6301820;28;20468;-83
2021/05/19 04:21:50;;;;;;;2.13;1.27;;;14.80;60.40;;;;;;6275206;28;20041;-83
2021/05/19 04:24:52;;;;;;;3.65;1.33;;;14.80;60.40;;;;;;6285110;28;20040;-83
2021/05/19 04:27:54;;;;;;;1.13;0.82;;;14.80;60.50;;;;;;6264979;28;20465;-83
2021/05/19 04:30:55;;;;;;;3.30;1.00;;;14.80;60.40;;;;;;6265832;28;20041;-84
2021/05/19 04:33:56;;;;;;;1.58;1.00;;;14.80;60.30;;;;;;6302163;28;20127;-83
2021/05/19 04:36:57;;;;;;;3.25;1.80;;;14.80;60.40;;;;;;6286260;28;20037;-83
2021/05/19 04:39:58;;;;;;;3.22;1.17;;;14.80;60.30;;;;;;6294277;28;20056;-83
2021/05/19 04:43:04;;;;;;;4.75;1.25;;;14.80;60.30;;;;;;6268487;28;20028;-83
2021/05/19 04:46:05;;;;;;;3.00;1.20;;;14.80;60.20;;;;;;6300647;28;20150;-84
2021/05/19 04:49:07;;;;;;;1.73;1.20;;;14.80;60.20;;;;;;6304172;28;20128;-83
2021/05/19 04:52:09;;;;;;;1.50;1.40;;;14.80;60.20;;;;;;6276835;28;20056;-83
2021/05/19 04:55:11;;;;;;;6.03;1.65;;;14.80;60.20;;;;;;6303858;28;20037;-83
2021/05/19 04:58:13;;;;;;;2.65;1.38;;;14.80;60.20;;;;;;6286331;28;20033;-84
2021/05/19 05:01:14;;;;;;;4.20;1.33;;;14.90;60.20;;;;;;6302666;28;20028;-83
2021/05/19 05:04:15;;;;;;;1.85;1.00;;;14.80;60.10;;;;;;6302316;28;20051;-83
2021/05/19 05:07:16;;;;;;;2.63;1.30;;;14.90;60.00;;;;;;6291022;28;20037;-83
2021/05/19 05:10:17;;;;;;;2.13;1.20;;;15.00;59.90;;;;;;6300780;28;20056;-83
2021/05/19 05:13:19;;;;;;;5.25;1.42;;;15.10;59.80;;;;;;6300221;28;20040;-85
2021/05/19 05:16:20;;;;;;;1.70;1.33;;;15.10;59.60;;;;;;6285185;28;21118;-84
2021/05/19 05:19:21;;;;;;;4.47;1.30;;;15.20;59.40;;;;;;6303016;28;20033;-83
2021/05/19 05:22:22;;;;;;;3.92;1.38;;;15.30;59.40;;;;;;6268576;28;20063;-83
2021/05/19 05:25:24;;;;;;;3.13;1.60;;;15.40;59.20;;;;;;6301152;28;20044;-83
2021/05/19 05:28:25;;;;;;;1.20;1.08;;;15.40;59.00;;;;;;6300263;28;20065;-83
2021/05/19 05:31:26;;;;;;;5.05;1.52;;;15.50;58.80;;;;;;6301883;28;20052;-84
2021/05/19 05:34:27;;;;;;;2.92;1.38;;;15.60;58.70;;;;;;6276020;28;20032;-83
2021/05/19 05:37:29;;;;;;;4.88;1.30;;;15.60;58.60;;;;;;6280029;28;20033;-84
2021/05/19 05:40:32;;;;;;;7.18;1.73;;;15.60;58.50;;;;;;6295085;28;20037;-85
2021/05/19 05:43:33;;;;;;;2.65;1.40;;;15.60;58.50;;;;;;6276686;28;20033;-83
2021/05/19 05:46:35;;;;;;;1.88;1.20;;;15.60;58.40;;;;;;6260076;28;20133;-85
2021/05/19 05:49:36;;;;;;;1.80;1.30;;;15.60;58.50;;;;;;6265783;28;20117;-84
2021/05/19 05:52:38;;;;;;;1.58;1.27;;;15.60;58.60;;;;;;6284462;28;20059;-82
2021/05/19 05:55:40;;;;;;;7.60;2.10;;;15.70;58.50;;;;;;6281792;28;20128;-85
2021/05/19 05:58:42;;;;;;;4.68;1.48;;;15.70;58.10;;;;;;6267272;28;20033;-84
2021/05/19 06:01:43;;;;;;;2.20;1.73;;;15.80;58.10;;;;;;6278971;28;20037;-85
2021/05/19 06:04:44;;;;;;;2.83;1.85;;;15.80;57.90;;;;;;6264965;28;20350;-84
2021/05/19 06:07:46;;;;;;;3.13;1.67;;;16.00;57.70;;;;;;6303395;28;20424;-83
2021/05/19 06:10:47;;;;;;;2.83;1.90;;;16.20;57.50;;;;;;6307678;28;20105;-83
2021/05/19 06:13:49;;;;;;;4.75;1.75;;;16.30;57.20;;;;;;6284492;28;20035;-83
2021/05/19 06:16:50;;;;;;;2.50;1.65;;;16.40;56.80;;;;;;6284581;28;20044;-84
2021/05/19 06:19:52;;;;;;;3.63;1.50;;;16.60;56.50;;;;;;6260872;28;20040;-84
2021/05/19 06:22:54;;;;;;;6.78;1.88;;;16.70;56.10;;;;;;6293453;28;20037;-85
2021/05/19 06:25:55;;;;;;;2.88;1.58;;;16.70;55.50;;;;;;6300536;28;20032;-83
2021/05/19 06:28:58;;;;;;;2.80;1.92;;;16.90;55.30;;;;;;6281466;28;20029;-83
2021/05/19 06:31:59;;;;;;;6.40;1.58;;;17.00;55.00;;;;;;6264837;28;20033;-83
2021/05/19 06:35:01;;;;;;;2.45;1.60;;;17.10;54.70;;;;;;6273333;28;20112;-84
2021/05/19 06:38:02;;;;;;;3.30;1.30;;;17.10;54.50;;;;;;6258994;28;20082;-85
2021/05/19 06:41:04;;;;;;;2.75;1.50;;;17.20;54.10;;;;;;6258918;28;20029;-84
2021/05/19 06:44:09;;;;;;;5.40;1.98;;;17.20;53.80;;;;;;6258563;28;20406;-83
2021/05/19 06:47:10;;;;;;;3.13;2.05;;;17.20;53.80;;;;;;6285035;28;20043;-83
2021/05/19 06:50:12;;;;;;;3.03;1.48;;;17.30;53.60;;;;;;6298488;28;20033;-84
2021/05/19 06:53:13;;;;;;;6.80;2.10;;;17.30;53.60;;;;;;6267803;28;20040;-84
2021/05/19 06:56:15;;;;;;;5.50;1.50;;;17.50;53.50;;;;;;6274108;28;20033;-84
2021/05/19 06:59:18;;;;;;;3.30;1.38;;;17.50;53.10;;;;;;6295303;28;20050;-85
2021/05/19 07:02:19;;;;;;;3.05;1.60;;;17.70;52.20;;;;;;6280639;28;20044;-84
2021/05/19 07:05:20;;;;;;;2.17;1.40;;;17.80;51.70;;;;;;6281610;28;20032;-84
2021/05/19 07:08:21;;;;;;;1.48;1.17;;;17.80;51.40;;;;;;6298970;28;20033;-84
2021/05/19 07:11:22;;;;;;;7.78;3.25;;;17.80;51.40;;;;;;6260734;28;20040;-84
2021/05/19 07:14:35;;;;;;;2.35;0.93;;;17.80;51.30;;;;;;6282334;28;20036;-84
2021/05/19 07:17:36;;;;;;;1.35;1.25;;;17.80;51.40;;;;;;6280536;28;20037;-84
2021/05/19 07:20:39;;;;;;;3.22;1.40;;;17.80;51.30;;;;;;6294875;28;20041;-84
2021/05/19 07:23:40;;;;;;;1.77;1.27;;;17.80;50.90;;;;;;6277641;28;20021;-84
2021/05/19 07:26:44;;;;;;;3.45;1.00;;;17.70;51.00;;;;;;6280400;28;20051;-84
2021/05/19 07:29:45;;;;;;;2.20;1.00;;;17.50;51.10;;;;;;6281510;28;20044;-83
2021/05/19 07:32:46;;;;;;;1.15;0.88;;;17.40;51.20;;;;;;6299024;28;20040;-84
2021/05/19 07:35:48;;;;;;;3.45;0.85;;;17.20;51.50;;;;;;6262821;28;20037;-84
2021/05/19 07:38:49;;;;;;;5.18;1.20;;;17.20;51.60;;;;;;6289611;28;20090;-83
2021/05/19 07:41:50;;;;;;;1.48;0.82;;;17.10;51.90;;;;;;6256122;28;20044;-83
2021/05/19 07:44:51;;;;;;;1.02;0.77;;;17.00;51.30;;;;;;6258590;28;20144;-84
2021/05/19 07:47:53;;;;;;;4.15;1.83;;;17.00;51.40;;;;;;6299261;28;20166;-84
2021/05/19 07:50:54;;;;;;;0.70;0.70;;;17.00;51.30;;;;;;6276609;28;20029;-83
2021/05/19 07:53:55;;;;;;;3.88;1.17;;;16.90;51.50;;;;;;6282246;28;20043;-83
2021/05/19 07:57:01;;;;;;;2.38;0.60;;;16.90;51.60;;;;;;6266496;28;20097;-83
2021/05/19 08:00:12;;;;;;;2.22;0.80;;;16.90;51.60;;;;;;6285188;28;20326;-83
2021/05/19 08:03:13;;;;;;;2.03;1.05;;;16.90;51.60;;;;;;6299313;28;20032;-85
2021/05/19 08:06:15;;;;;;;1.42;0.70;;;16.90;51.70;;;;;;6298482;28;20051;-85
2021/05/19 08:09:16;;;;;;;0.82;0.63;;;16.90;51.60;;;;;;6302512;28;20094;-84
2021/05/19 08:12:17;;;;;;;0.88;0.68;;;17.00;51.50;;;;;;6267160;28;20373;-83
2021/05/19 08:15:19;;;;;;;1.27;0.95;;;17.10;51.40;;;;;;6284190;28;20032;-83
2021/05/19 08:18:24;;;;;;;5.60;0.77;;;17.20;51.30;;;;;;6290228;28;20043;-85
2021/05/19 08:21:25;;;;;;;2.83;0.80;;;17.40;51.00;;;;;;6286956;28;20038;-84
2021/05/19 08:24:26;;;;;;;3.95;1.10;;;17.70;50.40;;;;;;6264287;28;20462;-84
2021/05/19 08:27:27;;;;;;;7.78;0.98;;;17.90;49.90;;;;;;6263812;28;20453;-83
2021/05/19 08:30:28;;;;;;;2.38;0.80;;;18.00;49.40;;;;;;6293293;28;20112;-84
2021/05/19 08:33:31;;;;;;;12.43;1.75;;;18.00;49.30;;;;;;6255254;28;20061;-84
2021/05/19 08:36:33;;;;;;;8.05;1.02;;;18.00;49.10;;;;;;6253896;28;20037;-85
2021/05/19 08:39:37;;;;;;;1.85;0.80;;;17.90;49.00;;;;;;6274841;28;20174;-84
2021/05/19 08:42:39;;;;;;;7.47;1.10;;;17.90;49.00;;;;;;6258226;28;20072;-84
2021/05/19 08:45:40;;;;;;;10.35;3.92;;;17.90;49.00;;;;;;6261019;28;20053;-85
2021/05/19 08:48:51;;;;;;;3.53;1.17;;;18.00;48.90;;;;;;6266413;28;20051;-84
2021/05/19 08:51:55;;;;;;;6.05;1.58;;;18.10;48.80;;;;;;6274440;28;20049;-84
2021/05/19 08:54:57;;;;;;;5.15;1.10;;;18.20;48.60;;;;;;6274636;28;20034;-84
2021/05/19 08:57:59;;;;;;;3.00;0.90;;;18.40;48.40;;;;;;6257541;28;20045;-83
2021/05/19 09:01:00;;;;;;;5.20;1.02;;;18.30;48.30;;;;;;6292109;28;20029;-84
2021/05/19 09:04:04;;;;;;;2.50;1.00;;;18.50;48.00;;;;;;6288296;28;20489;-83
2021/05/19 09:07:07;;;;;;;2.33;0.95;;;18.50;47.70;;;;;;6254347;28;20057;-84
2021/05/19 09:10:17;;;;;;;3.67;1.10;;;18.60;47.40;;;;;;6272705;28;20045;-84
2021/05/19 09:13:35;;;;;;;1.73;1.05;;;18.60;47.30;;;;;;6292217;28;20454;-83
2021/05/19 09:16:36;;;;;;;2.80;0.90;;;18.60;47.30;;;;;;6283018;28;20040;-84
2021/05/19 09:19:40;;;;;;;3.00;0.85;;;18.60;47.20;;;;;;6295293;28;20054;-85
2021/05/19 09:22:44;;;;;;;3.35;0.93;;;18.60;47.20;;;;;;6279687;28;20037;-83
2021/05/19 09:26:06;;;;;;;5.95;1.45;;;18.60;47.10;;;;;;6273546;28;20036;-84
2021/05/19 09:29:26;;;;;;;3.58;1.13;;;18.60;46.90;;;;;;6277245;28;20120;-84
2021/05/19 09:32:37;;;;;;;5.85;1.40;;;18.70;46.90;;;;;;6291413;28;20137;-84
2021/05/19 09:35:38;;;;;;;3.53;1.30;;;18.80;46.80;;;;;;6276931;28;20036;-84
2021/05/19 09:38:40;;;;;;;5.70;1.20;;;18.80;46.70;;;;;;6259539;28;20033;-85
2021/05/19 09:41:42;;;;;;;3.70;1.20;;;18.90;46.70;;;;;;6278480;28;20029;-85
2021/05/19 09:44:46;;;;;;;3.13;1.35;;;19.00;46.50;;;;;;6297106;28;20127;-84
2021/05/19 09:47:48;;;;;;;3.33;1.20;;;19.00;46.20;;;;;;6296582;28;20040;-85
2021/05/19 09:50:50;;;;;;;2.08;1.00;;;19.00;46.10;;;;;;6283212;28;20032;-84
2021/05/19 09:53:51;;;;;;;1.83;0.90;;;19.00;45.90;;;;;;6287674;28;20480;-84
2021/05/19 09:56:55;;;;;;;2.05;1.08;;;19.20;45.80;;;;;;6273384;28;20025;-83
2021/05/19 09:59:59;;;;;;;5.32;0.90;;;19.50;45.30;;;;;;6276705;28;20399;-85
2021/05/19 10:03:01;;;;;;;3.35;1.10;;;19.70;44.70;;;;;;6279361;28;20089;-84
2021/05/19 10:06:15;;;;;;;3.92;1.23;;;19.90;44.00;;;;;;6296950;28;20040;-85
2021/05/19 10:09:17;;;;;;;3.17;1.00;;;20.00;43.50;;;;;;6266815;28;20032;-83
2021/05/19 10:12:18;;;;;;;2.28;0.95;;;20.00;43.10;;;;;;6264369;28;20429;-83
2021/05/19 10:15:26;;;;;;;4.65;0.80;;;20.00;43.10;;;;;;6278427;28;20068;-83
2021/05/19 10:18:31;;;;;;;1.55;1.05;;;20.00;42.70;;;;;;6276211;28;20036;-84
2021/05/19 10:21:36;;;;;;;2.42;1.00;;;20.00;42.10;;;;;;6261061;28;20044;-83
2021/05/19 10:25:04;;;;;;;3.47;1.17;;;20.00;42.00;;;;;;6282678;28;20071;-83
2021/05/19 10:28:10;;;;;;;4.38;0.98;;;20.10;42.20;;;;;;6277770;28;20375;-84
2021/05/19 10:31:43;;;;;;;3.13;0.80;;;20.20;42.20;;;;;;6269940;28;20132;-83
2021/05/19 10:34:45;;;;;;;8.00;1.33;;;20.30;41.60;;;;;;6237687;28;20338;-85
2021/05/19 10:37:47;;;;;;;0.93;0.70;;;20.40;40.90;;;;;;6273921;28;20072;-84
2021/05/19 10:40:59;;;;;;;1.38;0.77;;;20.60;40.00;;;;;;6263360;28;20033;-84
2021/05/19 10:44:08;;;;;;;2.25;0.80;;;20.60;39.90;;;;;;6274393;28;20033;-84
2021/05/19 10:47:15;;;;;;;4.43;0.90;;;20.60;39.90;;;;;;6283039;28;20047;-86
2021/05/19 10:50:34;;;;;;;3.97;0.50;;;20.50;39.80;;;;;;6279585;28;20030;-84
2021/05/19 10:57:34;;;;;;;12.65;1.02;;;20.70;39.00;;;;;;6295988;28;20066;-84
2021/05/19 11:00:44;;;;;;;2.17;0.95;;;21.70;37.70;;;;;;6269706;28;20457;-84
2021/05/19 11:04:19;;;;;;;2.28;0.55;;;22.90;36.00;;;;;;6268052;28;20036;-83
2021/05/19 11:07:20;;;;;;;2.80;0.60;;;24.00;33.50;;;;;;6275758;28;20048;-85
2021/05/19 11:10:29;;;;;;;2.38;0.93;;;24.70;31.60;;;;;;6270969;28;20044;-84
2021/05/19 11:13:55;;;;;;;1.67;0.82;;;25.20;30.40;;;;;;6275496;28;20056;-83
2021/05/19 11:17:15;;;;;;;1.67;0.63;;;25.40;30.00;;;;;;6267356;28;20032;-84
2021/05/19 11:20:16;;;;;;;2.97;0.57;;;24.90;30.40;;;;;;6274876;28;20102;-84
2021/05/19 11:23:18;;;;;;;1.48;0.70;;;24.10;31.60;;;;;;6260120;28;20044;-83
2021/05/19 11:26:19;;;;;;;7.70;0.75;;;23.60;32.40;;;;;;6235886;28;20148;-84
2021/05/19 11:29:20;;;;;;;1.17;0.60;;;23.10;33.10;;;;;;6273701;28;20078;-84
2021/05/19 11:32:32;;;;;;;1.23;0.70;;;22.70;33.70;;;;;;6292127;28;20102;-84
2021/05/19 11:35:35;;;;;;;0.50;0.50;;;22.40;33.90;;;;;;6252284;28;20029;-84
2021/05/19 11:38:36;;;;;;;2.72;0.70;;;22.30;34.30;;;;;;6272269;28;20028;-85
2021/05/19 11:41:37;;;;;;;1.38;0.50;;;22.20;34.90;;;;;;6277784;28;20475;-84
2021/05/19 11:45:00;;;;;;;1.90;0.82;;;22.80;33.60;;;;;;6294443;28;20109;-84
2021/05/19 11:48:02;;;;;;;0.93;0.50;;;23.80;32.30;;;;;;6290010;28;20442;-83
2021/05/19 11:51:16;;;;;;;1.30;0.70;;;24.40;31.20;;;;;;6284529;28;20040;-84
2021/05/19 11:54:17;;;;;;;1.02;0.73;;;24.50;30.90;;;;;;6246739;28;20400;-85
2021/05/19 11:57:22;;;;;;;0.60;0.50;;;24.70;30.70;;;;;;6283754;28;20408;-84
2021/05/19 12:00:37;;;;;;;2.63;0.80;;;25.10;30.30;;;;;;6259949;28;20572;-84
2021/05/19 12:03:38;;;;;;;3.75;0.73;;;25.50;30.00;;;;;;6278455;28;20033;-84
2021/05/19 12:06:48;;;;;;;3.58;0.77;;;25.90;29.50;;;;;;6292314;28;20051;-84
2021/05/19 12:09:49;;;;;;;3.15;0.57;;;25.80;29.60;;;;;;6262538;28;20040;-83
2021/05/19 12:12:54;;;;;;;5.38;0.95;;;25.40;29.80;;;;;;6296107;28;20127;-84
2021/05/19 12:15:58;;;;;;;3.00;0.77;;;25.00;29.90;;;;;;6268801;28;20033;-83
2021/05/19 12:19:00;;;;;;;2.55;0.90;;;24.60;30.10;;;;;;6279240;28;20025;-85
2021/05/19 12:22:11;;;;;;;2.83;0.77;;;24.30;30.30;;;;;;6279955;28;20032;-84
2021/05/19 12:25:12;;;;;;;2.53;0.90;;;24.10;30.70;;;;;;6292906;28;20122;-84
2021/05/19 12:28:21;;;;;;;2.85;1.05;;;23.80;31.20;;;;;;6245910;28;20037;-83
2021/05/19 12:31:31;;;;;;;2.67;0.43;;;23.20;32.50;;;;;;6249447;28;20037;-85
2021/05/19 12:34:34;;;;;;;0.85;0.50;;;22.60;33.70;;;;;;6274038;28;20070;-82
2021/05/19 12:37:51;;;;;;;7.88;1.23;;;22.20;34.80;;;;;;6295355;28;20432;-83
2021/05/19 12:40:55;;;;;;;1.05;0.60;;;21.90;35.60;;;;;;6260029;28;20044;-83
2021/05/19 12:44:29;;;;;;;4.45;0.70;;;21.80;35.90;;;;;;6153771;28;20550;-83
2021/05/19 12:47:31;;;;;;;1.15;0.63;;;22.20;35.50;;;;;;6056055;28;20040;-84
2021/05/19 12:50:45;;;;;;;6.57;0.60;;;23.40;34.50;;;;;;6150653;28;20048;-84
2021/05/19 12:53:54;;;;;;;1.27;0.77;;;24.50;33.30;;;;;;6166512;28;20042;-83
2021/05/19 12:57:09;;;;;;;1.75;0.65;;;25.50;30.80;;;;;;6168414;28;20073;-84
2021/05/19 13:00:19;;;;;;;0.60;0.60;;;25.60;30.40;;;;;;6176946;28;20026;-84
2021/05/19 13:03:37;;;;;;;8.32;0.90;;;26.20;30.00;;;;;;6196585;28;20034;-85
2021/05/19 13:06:39;;;;;;;4.22;0.68;;;27.30;29.70;;;;;;6186943;28;20049;-84
2021/05/19 13:09:40;;;;;;;3.92;0.70;;;28.30;27.80;;;;;;6198504;28;20104;-85
2021/05/19 13:13:05;;;;;;;3.63;0.88;;;28.80;27.00;;;;;;6168797;28;20056;-84
2021/05/19 13:16:14;;;;;;;4.45;0.82;;;28.50;27.00;;;;;;6157530;28;20035;-84
2021/05/19 13:19:22;;;;;;;3.95;0.65;;;28.90;26.50;;;;;;6183607;28;20034;-85
2021/05/19 13:22:27;;;;;;;4.45;0.77;;;30.10;25.40;;;;;;6161971;28;20039;-85
2021/05/19 13:25:30;;;;;;;11.65;1.23;;;31.40;24.60;;;;;;6258617;28;20041;-84
2021/05/19 13:28:36;;;;;;;6.10;0.80;;;32.70;23.20;;;;;;6274244;28;20112;-82
2021/05/19 13:31:43;;;;;;;2.13;0.88;;;33.60;22.40;;;;;;6283465;28;20410;-85
2021/05/19 13:38:08;;;;;;;2.00;0.80;;;33.30;21.20;;;;;;6251916;28;20098;-84
2021/05/19 13:41:10;;;;;;;5.60;0.80;;;33.60;21.20;;;;;;6229914;28;20471;-84
2021/05/19 13:44:12;;;;;;;9.65;1.20;;;33.50;21.10;;;;;;6251084;28;20108;-83
2021/05/19 13:47:13;;;;;;;0.40;0.40;;;32.60;21.90;;;;;;6260319;28;20033;-84
2021/05/19 13:50:18;;;;;;;4.05;0.70;;;32.50;21.90;;;;;;6232545;28;20474;-83
2021/05/19 13:53:19;;;;;;;0.52;0.40;;;33.60;20.70;;;;;;6249232;28;20066;-83
2021/05/19 13:56:20;;;;;;;8.15;0.63;;;34.90;20.10;;;;;;6242087;28;20458;-83
2021/05/19 13:59:23;;;;;;;1.98;0.50;;;36.40;19.10;;;;;;6246340;28;20028;-84
2021/05/19 14:02:27;;;;;;;4.80;0.77;;;37.20;18.50;;;;;;6218454;28;20040;-84
2021/05/19 14:05:28;;;;;;;1.00;0.50;;;38.00;17.70;;;;;;6237283;28;20122;-83
2021/05/19 14:08:31;;;;;;;1.42;0.50;;;38.60;17.00;;;;;;6240021;28;20349;-84
2021/05/19 14:11:36;;;;;;;0.95;0.30;;;38.20;17.10;;;;;;6242654;28;20111;-85
2021/05/19 14:27:22;;;;;;;3.83;1.67;;;33.40;20.00;;;;;;6287764;28;20037;-83
2021/05/19 14:30:24;;;;;;;6.28;1.55;;;31.90;21.30;;;;;;6275770;28;20122;-83
2021/05/19 14:33:25;;;;;;;2.72;0.93;;;30.50;22.20;;;;;;6244873;28;20044;-84
2021/05/19 15:02:22;;;;;;;2.05;0.70;;;24.20;29.20;;;;;;6187103;28;20945;-83
2021/05/19 15:05:23;;;;;;;6.65;0.93;;;23.70;29.90;;;;;;6170341;28;20101;-83
2021/05/19 15:08:24;;;;;;;1.35;0.50;;;23.40;30.40;;;;;;6198153;28;20039;-82
2021/05/19 15:11:25;;;;;;;0.20;0.20;;;23.20;31.00;;;;;;6182069;28;20088;-84
2021/05/19 15:14:27;;;;;;;3.35;0.90;;;23.00;31.20;;;;;;6187894;28;20042;-85
2021/05/19 15:17:28;;;;;;;7.35;1.10;;;22.80;31.40;;;;;;6195740;28;20034;-83
2021/05/19 15:20:29;;;;;;;1.33;0.60;;;22.70;31.70;;;;;;6179249;28;20053;-84
2021/05/19 15:23:30;;;;;;;7.43;1.00;;;22.60;32.00;;;;;;6194415;28;20104;-84
2021/05/19 15:26:32;;;;;;;3.88;1.23;;;22.40;32.00;;;;;;6161469;28;20054;-84
2021/05/19 15:29:35;;;;;;;1.17;0.75;;;22.30;32.40;;;;;;6198982;28;20076;-84
2021/05/19 15:32:37;;;;;;;1.10;0.60;;;22.20;32.60;;;;;;6232554;28;20029;-83
2021/05/19 15:35:52;;;;;;;1.13;0.50;;;22.10;32.90;;;;;;6228551;28;20867;-84
2021/05/19 15:39:07;;;;;;;4.43;1.50;;;22.10;33.20;;;;;;6265383;28;20032;-84
2021/05/19 15:42:09;;;;;;;1.75;0.50;;;22.00;33.30;;;;;;6252665;28;20032;-83
2021/05/19 15:45:13;;;;;;;1.95;0.82;;;22.00;33.40;;;;;;6251963;28;20060;-82
2021/05/19 15:48:14;;;;;;;3.88;1.17;;;22.20;33.30;;;;;;6228565;28;20021;-83
2021/05/19 15:51:15;;;;;;;6.72;0.85;;;22.70;32.70;;;;;;6260817;28;20112;-83
2021/05/19 15:54:17;;;;;;;1.67;0.90;;;22.80;32.00;;;;;;6250214;28;20041;-84
2021/05/19 15:57:19;;;;;;;1.10;0.65;;;22.60;32.20;;;;;;6275501;28;20056;-84
2021/05/19 16:00:24;;;;;;;2.58;0.70;;;22.50;32.70;;;;;;6262134;28;20104;-83
2021/05/19 16:03:29;;;;;;;2.25;1.50;;;22.20;33.10;;;;;;6264648;28;20363;-84
2021/05/19 16:06:32;;;;;;;1.20;0.55;;;21.90;33.40;;;;;;6280335;28;20046;-83
2021/05/19 16:09:35;;;;;;;1.25;0.63;;;21.60;33.70;;;;;;6251049;28;20041;-83
2021/05/19 16:12:36;;;;;;;3.78;0.57;;;21.20;35.20;;;;;;6264578;28;20465;-83
2021/05/19 16:15:38;;;;;;;3.50;0.50;;;20.60;39.60;;;;;;6253541;28;20378;-84
2021/05/19 16:18:39;;;;;;;0.50;0.30;;;19.60;42.30;;;;;;6250179;28;20065;-84
2021/05/19 16:21:43;;;;;;;1.85;0.30;;;18.50;45.50;;;;;;6230359;28;20281;-85
2021/05/19 16:24:45;;;;;;;0.28;0.20;;;17.50;47.60;;;;;;6252576;28;20077;-86
2021/05/19 16:27:47;;;;;;;1.65;0.20;;;16.70;49.60;;;;;;6285121;28;20053;-85
2021/05/19 16:31:13;;;;;;;3.70;0.40;;;16.20;50.90;;;;;;6268570;28;20040;-85
2021/05/19 16:34:26;;;;;;;2.63;0.63;;;15.80;51.90;;;;;;6287305;28;20033;-85
2021/05/19 16:37:27;;;;;;;0.85;0.60;;;15.60;52.70;;;;;;6251450;28;20033;-85
2021/05/19 16:40:28;;;;;;;1.20;0.32;;;15.50;53.70;;;;;;6269915;28;20118;-84